Time;durP1;ratioP1;P1;durP2;ratioP2;P2;SDS_P1;SDS_P2;PMS_P1;PMS_P2;Temp;Humidity;BMP_temperature;BMP_pressure;BME280_temperature;BME280_humidity;BME280_pressure;Samples;Min_cycle;Max_cycle;Signal;HPM_P1;HPM_P2
2022/10/25 00:02:22;;;;;;;14.07;2.10;;;13.70;99.90;;;;;;4956582;28;20097;-75
2022/10/25 00:04:48;;;;;;;14.32;1.58;;;13.70;99.90;;;;;;4974800;28;20031;-76
2022/10/25 00:07:13;;;;;;;12.98;1.85;;;13.70;99.90;;;;;;4983957;28;20610;-75
2022/10/25 00:09:40;;;;;;;12.02;1.77;;;13.70;99.90;;;;;;4984238;28;20057;-75
2022/10/25 00:12:05;;;;;;;13.32;2.00;;;13.80;99.90;;;;;;4974027;28;20050;-76
2022/10/25 00:14:33;;;;;;;12.75;1.60;;;13.80;99.90;;;;;;4979703;28;20034;-75
2022/10/25 00:16:58;;;;;;;11.65;1.30;;;13.80;99.90;;;;;;4985095;28;20026;-75
2022/10/25 00:19:24;;;;;;;11.25;1.40;;;13.70;99.90;;;;;;4984993;28;20035;-75
2022/10/25 00:21:50;;;;;;;8.85;1.20;;;13.70;99.90;;;;;;4982954;28;20034;-74
2022/10/25 00:24:15;;;;;;;12.63;1.77;;;13.60;99.90;;;;;;4974754;28;20093;-75
2022/10/25 00:26:41;;;;;;;10.63;1.15;;;13.60;99.90;;;;;;4976358;28;20060;-75
2022/10/25 00:29:08;;;;;;;12.35;1.45;;;13.60;99.90;;;;;;4981151;28;20038;-74
2022/10/25 00:31:35;;;;;;;14.73;1.75;;;13.50;99.90;;;;;;4964036;28;20069;-73
2022/10/25 00:34:01;;;;;;;11.73;1.58;;;13.50;99.90;;;;;;4976122;28;20031;-75
2022/10/25 00:36:26;;;;;;;11.82;1.73;;;13.50;99.90;;;;;;4979578;28;20038;-75
2022/10/25 00:38:55;;;;;;;11.70;1.50;;;13.40;99.90;;;;;;4982088;28;20046;-75
2022/10/25 00:41:23;;;;;;;15.70;2.33;;;13.40;99.90;;;;;;4957579;28;20157;-75
2022/10/25 00:43:54;;;;;;;13.93;1.65;;;13.40;99.90;;;;;;4982698;28;20041;-74
2022/10/25 00:46:19;;;;;;;12.15;1.65;;;13.30;99.90;;;;;;4983926;28;20034;-74
2022/10/25 00:49:03;;;;;;;13.20;1.63;;;13.40;99.90;;;;;;4965660;28;20018;-74
2022/10/25 00:51:37;;;;;;;12.07;1.52;;;13.30;99.90;;;;;;4982142;28;20038;-74
2022/10/25 00:54:04;;;;;;;11.25;1.58;;;13.20;99.90;;;;;;4983034;28;20029;-73
2022/10/25 00:56:36;;;;;;;8.38;1.20;;;13.20;99.90;;;;;;4975778;28;20034;-73
2022/10/25 00:59:04;;;;;;;13.90;1.65;;;13.10;99.90;;;;;;4977837;28;20022;-75
2022/10/25 01:01:30;;;;;;;12.35;1.40;;;13.20;99.90;;;;;;4958399;28;20038;-75
2022/10/25 01:04:00;;;;;;;12.70;1.98;;;13.20;99.90;;;;;;4974217;28;20041;-75
2022/10/25 01:06:32;;;;;;;7.43;1.30;;;13.20;99.90;;;;;;4979386;28;20103;-75
2022/10/25 01:08:59;;;;;;;10.07;1.27;;;13.20;99.90;;;;;;4978850;28;20030;-74
2022/10/25 01:11:25;;;;;;;9.20;1.48;;;13.20;99.90;;;;;;4982975;28;20034;-75
2022/10/25 01:13:51;;;;;;;14.82;2.13;;;13.20;99.90;;;;;;4984432;28;20034;-75
2022/10/25 01:16:55;;;;;;;11.63;1.58;;;13.30;99.90;;;;;;4977416;28;20027;-74
2022/10/25 01:19:54;;;;;;;10.02;1.50;;;13.20;99.90;;;;;;4975551;28;20632;-73
2022/10/25 01:22:29;;;;;;;12.18;1.60;;;13.20;99.90;;;;;;4976562;28;20050;-73
2022/10/25 01:25:13;;;;;;;14.35;1.75;;;13.20;99.90;;;;;;4974576;28;20566;-75
2022/10/25 01:27:51;;;;;;;12.73;1.60;;;13.30;99.90;;;;;;4982980;28;20089;-74
2022/10/25 01:30:24;;;;;;;13.88;2.20;;;13.30;99.90;;;;;;4967237;28;20050;-72
2022/10/25 01:33:19;;;;;;;9.57;1.30;;;13.40;99.90;;;;;;4983564;28;20719;-74
2022/10/25 01:35:58;;;;;;;9.90;1.20;;;13.40;99.90;;;;;;4979306;28;20297;-71
2022/10/25 01:38:40;;;;;;;10.95;1.52;;;13.60;99.90;;;;;;4980132;28;20042;-75
2022/10/25 01:41:27;;;;;;;13.52;1.77;;;13.60;99.90;;;;;;4965160;28;20074;-73
2022/10/25 01:44:01;;;;;;;10.25;1.55;;;13.60;99.90;;;;;;4984296;28;20034;-74
2022/10/25 01:46:41;;;;;;;10.15;1.48;;;13.60;99.90;;;;;;4979932;28;20527;-74
2022/10/25 01:49:13;;;;;;;8.27;1.15;;;13.60;99.90;;;;;;4984196;28;20038;-74
2022/10/25 01:51:39;;;;;;;13.48;1.52;;;13.70;99.90;;;;;;4983331;28;20104;-74
2022/10/25 01:54:24;;;;;;;13.05;1.45;;;13.70;99.90;;;;;;4967590;28;21984;-75
2022/10/25 01:57:18;;;;;;;14.70;1.65;;;13.70;99.90;;;;;;4983166;28;20026;-73
2022/10/25 02:00:07;;;;;;;10.38;1.42;;;13.60;99.90;;;;;;4974178;28;20703;-74
2022/10/25 02:02:45;;;;;;;10.07;1.10;;;13.60;99.90;;;;;;4953545;28;20047;-74
2022/10/25 02:05:28;;;;;;;11.18;1.30;;;13.50;99.90;;;;;;4987288;28;20125;-72
2022/10/25 02:08:41;;;;;;;8.73;1.52;;;13.50;99.90;;;;;;4987704;28;20041;-72
2022/10/25 02:11:30;;;;;;;13.43;1.60;;;13.50;99.90;;;;;;4946613;28;20050;-73
2022/10/25 02:13:56;;;;;;;10.77;1.57;;;13.60;99.90;;;;;;4981919;28;20042;-74
2022/10/25 02:16:26;;;;;;;7.85;0.90;;;13.60;99.90;;;;;;4968391;28;20394;-71
2022/10/25 02:18:58;;;;;;;12.60;1.30;;;13.60;99.90;;;;;;4979089;28;20103;-71
2022/10/25 02:21:26;;;;;;;8.02;1.25;;;13.70;99.90;;;;;;4987780;28;20585;-75
2022/10/25 02:23:53;;;;;;;9.85;1.50;;;13.70;99.90;;;;;;4976909;28;20034;-73
2022/10/25 02:26:20;;;;;;;10.35;1.40;;;13.70;99.90;;;;;;4969017;28;20053;-72
2022/10/25 02:28:47;;;;;;;12.93;1.67;;;13.70;99.90;;;;;;4978714;28;20038;-72
2022/10/25 02:31:16;;;;;;;13.75;1.67;;;13.70;99.90;;;;;;4975660;28;20026;-74
2022/10/25 02:33:44;;;;;;;9.27;1.60;;;13.60;99.90;;;;;;4982330;28;20570;-72
2022/10/25 02:36:18;;;;;;;11.65;1.65;;;13.70;99.90;;;;;;4977214;28;20031;-73
2022/10/25 02:38:44;;;;;;;10.32;1.75;;;13.70;99.90;;;;;;4972986;28;20531;-75
2022/10/25 02:41:10;;;;;;;12.93;1.80;;;13.80;99.90;;;;;;4985195;28;20034;-75
2022/10/25 02:43:36;;;;;;;16.75;2.20;;;13.80;99.90;;;;;;4983995;28;20103;-74
2022/10/25 02:46:07;;;;;;;16.25;1.48;;;13.80;99.90;;;;;;4982567;28;20034;-74
2022/10/25 02:48:32;;;;;;;12.48;1.63;;;13.80;99.90;;;;;;4983753;28;20022;-72
2022/10/25 02:50:58;;;;;;;11.35;1.77;;;13.90;99.90;;;;;;4983845;28;20100;-73
2022/10/25 02:53:24;;;;;;;14.38;1.90;;;13.90;99.90;;;;;;4980524;28;20037;-74
2022/10/25 02:56:18;;;;;;;12.25;1.48;;;13.90;99.90;;;;;;4978504;28;20037;-74
2022/10/25 02:58:45;;;;;;;11.48;1.70;;;14.00;99.90;;;;;;4985453;28;20046;-75
2022/10/25 03:01:12;;;;;;;12.95;1.52;;;14.00;99.90;;;;;;4967322;28;20030;-72
2022/10/25 03:03:38;;;;;;;12.88;1.38;;;14.00;99.90;;;;;;4983427;28;20034;-74
2022/10/25 03:06:04;;;;;;;10.95;1.83;;;14.10;99.90;;;;;;4972382;28;20030;-75
2022/10/25 03:08:30;;;;;;;10.20;1.35;;;14.10;99.90;;;;;;4985060;28;20102;-73
2022/10/25 03:10:56;;;;;;;11.13;1.25;;;14.20;99.90;;;;;;4977047;28;20034;-74
2022/10/25 03:13:22;;;;;;;12.27;1.42;;;14.20;99.90;;;;;;4984487;28;20078;-73
2022/10/25 03:15:47;;;;;;;11.55;1.50;;;14.20;99.90;;;;;;4968797;28;20030;-74
2022/10/25 03:18:14;;;;;;;11.93;1.23;;;14.20;99.90;;;;;;4975014;28;20033;-72
2022/10/25 03:20:40;;;;;;;11.25;1.45;;;14.20;99.90;;;;;;4985152;28;20081;-73
2022/10/25 03:23:06;;;;;;;10.07;1.45;;;14.10;99.90;;;;;;4960559;28;20034;-72
2022/10/25 03:25:32;;;;;;;11.75;1.48;;;14.10;99.90;;;;;;4977457;28;20039;-73
2022/10/25 03:28:00;;;;;;;10.32;1.40;;;14.10;99.90;;;;;;4985225;28;20034;-72
2022/10/25 03:30:28;;;;;;;10.48;1.70;;;14.10;99.90;;;;;;4974598;28;20034;-74
2022/10/25 03:32:54;;;;;;;16.85;1.60;;;14.10;99.90;;;;;;4979698;28;20081;-74
2022/10/25 03:35:20;;;;;;;11.40;1.77;;;14.10;99.90;;;;;;4982867;28;20052;-74
2022/10/25 03:37:50;;;;;;;15.10;1.27;;;14.10;99.90;;;;;;4985720;28;20583;-73
2022/10/25 03:40:16;;;;;;;12.23;1.58;;;14.10;99.90;;;;;;4972396;28;20019;-76
2022/10/25 03:42:42;;;;;;;8.98;1.20;;;14.10;99.90;;;;;;4976334;28;20670;-75
2022/10/25 03:45:09;;;;;;;8.90;1.30;;;14.20;99.90;;;;;;4983475;28;20112;-73
2022/10/25 03:47:34;;;;;;;11.93;1.58;;;14.20;99.90;;;;;;4984963;28;20085;-73
2022/10/25 03:50:00;;;;;;;8.43;1.48;;;14.30;99.90;;;;;;4985045;28;20026;-75
2022/10/25 03:52:26;;;;;;;12.77;1.42;;;14.30;99.90;;;;;;4982433;28;20038;-73
2022/10/25 03:54:51;;;;;;;9.98;1.73;;;14.30;99.90;;;;;;4966525;28;20094;-74
2022/10/25 03:57:17;;;;;;;21.27;1.77;;;14.30;99.90;;;;;;4974450;28;20034;-72
2022/10/25 03:59:43;;;;;;;12.90;1.67;;;14.20;99.90;;;;;;4966282;28;20073;-74
2022/10/25 04:02:09;;;;;;;13.43;1.92;;;14.20;99.90;;;;;;4965861;28;20623;-76
2022/10/25 04:04:35;;;;;;;11.27;1.45;;;14.30;99.90;;;;;;4983310;28;20034;-75
2022/10/25 04:07:01;;;;;;;12.30;1.40;;;14.30;99.90;;;;;;4973149;28;20097;-74
2022/10/25 04:09:27;;;;;;;12.82;1.90;;;14.20;99.90;;;;;;4959791;28;20070;-74
2022/10/25 04:11:52;;;;;;;13.00;1.30;;;14.20;99.90;;;;;;4985174;28;20061;-75
2022/10/25 04:14:18;;;;;;;11.45;1.73;;;14.20;99.90;;;;;;4980972;28;20072;-73
2022/10/25 04:16:44;;;;;;;14.18;1.50;;;14.20;99.90;;;;;;4965325;28;20039;-76
2022/10/25 04:19:09;;;;;;;13.02;1.40;;;14.20;99.90;;;;;;4978880;28;20034;-75
2022/10/25 04:21:35;;;;;;;10.50;1.25;;;14.30;99.90;;;;;;4984742;28;20062;-75
2022/10/25 04:24:01;;;;;;;10.50;1.17;;;14.30;99.90;;;;;;4981662;28;20030;-75
2022/10/25 04:26:26;;;;;;;9.98;1.33;;;14.30;99.90;;;;;;4971570;28;20042;-74
2022/10/25 04:28:54;;;;;;;10.10;1.20;;;14.40;99.90;;;;;;4967036;28;20027;-74
2022/10/25 04:31:20;;;;;;;11.02;1.17;;;14.40;99.90;;;;;;4966325;28;20121;-74
2022/10/25 04:33:51;;;;;;;9.85;1.15;;;14.40;99.90;;;;;;4983698;28;20091;-74
2022/10/25 04:36:17;;;;;;;11.57;1.30;;;14.40;99.90;;;;;;4984661;28;20130;-75
2022/10/25 04:38:43;;;;;;;9.27;1.48;;;14.40;99.90;;;;;;4984002;28;20096;-74
2022/10/25 04:41:09;;;;;;;10.57;1.60;;;14.50;99.90;;;;;;4983722;28;20047;-74
2022/10/25 04:43:35;;;;;;;7.47;1.27;;;14.40;99.90;;;;;;4964236;28;20088;-75
2022/10/25 04:46:01;;;;;;;12.07;1.75;;;14.40;99.90;;;;;;4968935;28;20059;-74
2022/10/25 04:48:27;;;;;;;12.27;1.40;;;14.40;99.90;;;;;;4966965;28;20030;-74
2022/10/25 04:50:53;;;;;;;12.95;1.55;;;14.30;99.90;;;;;;4979225;28;20030;-73
2022/10/25 04:53:18;;;;;;;12.52;1.25;;;14.30;99.90;;;;;;4967368;28;20054;-74
2022/10/25 04:55:44;;;;;;;12.30;1.65;;;14.30;99.90;;;;;;4981742;28;20038;-74
2022/10/25 04:58:09;;;;;;;12.73;1.80;;;14.30;99.90;;;;;;4983415;28;20542;-73
2022/10/25 05:00:35;;;;;;;9.35;1.65;;;14.30;99.90;;;;;;4982278;28;20049;-74
2022/10/25 05:03:01;;;;;;;10.00;1.35;;;14.30;99.90;;;;;;4984472;28;20105;-74
2022/10/25 05:05:29;;;;;;;11.68;1.85;;;14.30;99.90;;;;;;4983824;28;20030;-72
2022/10/25 05:07:55;;;;;;;9.45;1.40;;;14.30;99.90;;;;;;4981900;28;20431;-74
2022/10/25 05:10:21;;;;;;;9.25;1.40;;;14.30;99.90;;;;;;4977850;28;20034;-72
2022/10/25 05:12:46;;;;;;;10.82;1.40;;;14.40;99.90;;;;;;4977779;28;20041;-76
2022/10/25 05:15:12;;;;;;;11.13;1.38;;;14.30;99.90;;;;;;4965698;28;20084;-74
2022/10/25 05:17:37;;;;;;;7.13;1.08;;;14.40;99.90;;;;;;4984410;28;20039;-74
2022/10/25 05:20:03;;;;;;;18.58;1.95;;;14.40;99.90;;;;;;4982554;28;20706;-74
2022/10/25 05:22:30;;;;;;;12.27;1.67;;;14.40;99.90;;;;;;4965065;28;20174;-75
2022/10/25 05:24:55;;;;;;;12.95;1.88;;;14.40;99.90;;;;;;4964610;28;20030;-74
2022/10/25 05:27:21;;;;;;;11.95;1.50;;;14.40;99.90;;;;;;4980122;28;20034;-74
2022/10/25 05:29:47;;;;;;;14.27;1.42;;;14.40;99.90;;;;;;4986938;28;20533;-74
2022/10/25 05:32:12;;;;;;;9.40;1.48;;;14.40;99.90;;;;;;4980527;28;20039;-73
2022/10/25 05:34:38;;;;;;;9.65;1.48;;;14.40;99.90;;;;;;4991114;28;20069;-74
2022/10/25 05:37:03;;;;;;;15.27;1.67;;;14.30;99.90;;;;;;4983870;28;20029;-75
2022/10/25 05:39:29;;;;;;;8.38;1.20;;;14.30;99.90;;;;;;4986345;28;20440;-76
2022/10/25 05:41:54;;;;;;;9.18;1.10;;;14.30;99.90;;;;;;4987155;28;20035;-74
2022/10/25 05:44:21;;;;;;;9.95;1.40;;;14.20;99.90;;;;;;4987015;28;20065;-74
2022/10/25 05:46:47;;;;;;;10.63;1.40;;;14.20;99.90;;;;;;5001270;28;20147;-75
2022/10/25 05:49:12;;;;;;;11.43;1.55;;;14.20;99.90;;;;;;4999323;28;20030;-73
2022/10/25 05:51:38;;;;;;;8.27;1.20;;;14.20;99.90;;;;;;5002524;28;20518;-73
2022/10/25 05:54:09;;;;;;;11.13;1.67;;;14.30;99.90;;;;;;4988700;28;20045;-73
2022/10/25 05:56:36;;;;;;;8.55;1.40;;;14.30;99.90;;;;;;4983258;28;20038;-74
2022/10/25 05:59:10;;;;;;;8.82;1.20;;;14.30;99.90;;;;;;4988388;28;20482;-74
2022/10/25 06:01:43;;;;;;;13.45;1.38;;;14.30;99.90;;;;;;4975413;28;20042;-74
2022/10/25 06:04:09;;;;;;;8.98;1.10;;;14.30;99.90;;;;;;4982826;28;20045;-75
2022/10/25 06:06:37;;;;;;;10.15;1.42;;;14.30;99.90;;;;;;4982778;28;20041;-73
2022/10/25 06:09:03;;;;;;;10.43;1.20;;;14.30;99.90;;;;;;4968768;28;20029;-74
2022/10/25 06:11:30;;;;;;;13.45;1.83;;;14.30;99.90;;;;;;4985933;28;20345;-73
2022/10/25 06:13:55;;;;;;;12.07;1.15;;;14.30;99.90;;;;;;4967939;28;20121;-73
2022/10/25 06:16:22;;;;;;;13.57;1.60;;;14.30;99.90;;;;;;4983287;28;20157;-74
2022/10/25 06:18:48;;;;;;;10.30;1.67;;;14.20;99.90;;;;;;4967364;28;20034;-73
2022/10/25 06:21:16;;;;;;;12.32;1.58;;;14.20;99.90;;;;;;4977326;28;20038;-74
2022/10/25 06:23:42;;;;;;;11.10;1.50;;;14.20;99.90;;;;;;4988483;28;20118;-72
2022/10/25 06:26:13;;;;;;;12.70;1.30;;;14.20;99.90;;;;;;4979142;28;20057;-74
2022/10/25 06:28:39;;;;;;;13.45;1.58;;;14.20;99.90;;;;;;4985658;28;20050;-74
2022/10/25 06:31:08;;;;;;;10.52;1.45;;;14.20;99.90;;;;;;4965486;28;20037;-73
2022/10/25 06:33:34;;;;;;;16.67;1.63;;;14.20;99.90;;;;;;4978798;28;20060;-73
2022/10/25 06:36:01;;;;;;;16.88;1.88;;;14.20;99.90;;;;;;4982063;28;20049;-75
2022/10/25 06:38:28;;;;;;;9.43;1.52;;;14.20;99.90;;;;;;4982348;28;20089;-74
2022/10/25 06:41:00;;;;;;;17.85;2.08;;;14.20;99.90;;;;;;4981087;28;20030;-74
2022/10/25 06:43:26;;;;;;;14.85;1.70;;;14.20;99.90;;;;;;4982616;28;20029;-73
2022/10/25 06:45:52;;;;;;;15.90;1.95;;;14.20;99.90;;;;;;4983557;28;20026;-74
2022/10/25 06:48:17;;;;;;;14.40;1.73;;;14.20;99.90;;;;;;4983447;28;20417;-74
2022/10/25 06:50:43;;;;;;;18.40;2.78;;;14.20;99.90;;;;;;4980971;28;20089;-74
2022/10/25 06:53:09;;;;;;;11.30;1.58;;;14.20;99.90;;;;;;4984208;28;20081;-74
2022/10/25 06:55:34;;;;;;;8.80;1.75;;;14.20;99.90;;;;;;4983689;28;20675;-74
2022/10/25 06:58:00;;;;;;;12.52;1.75;;;14.30;99.90;;;;;;4990963;28;20137;-75
2022/10/25 07:00:25;;;;;;;8.15;1.35;;;14.20;99.90;;;;;;4988615;28;20405;-75
2022/10/25 07:02:58;;;;;;;13.77;1.63;;;14.20;99.90;;;;;;4974482;28;20825;-73
2022/10/25 07:05:25;;;;;;;11.48;1.50;;;14.20;99.90;;;;;;4993007;28;20033;-74
2022/10/25 07:07:51;;;;;;;10.45;1.70;;;14.20;99.90;;;;;;4985769;28;20569;-74
2022/10/25 07:10:17;;;;;;;16.52;1.58;;;14.30;99.90;;;;;;4983452;28;20035;-75
2022/10/25 07:12:43;;;;;;;11.43;1.75;;;14.30;99.90;;;;;;4968578;28;20132;-73
2022/10/25 07:15:09;;;;;;;8.65;1.30;;;14.30;99.90;;;;;;4969990;28;20031;-73
2022/10/25 07:17:35;;;;;;;12.50;1.60;;;14.30;99.90;;;;;;4980144;28;20042;-73
2022/10/25 07:20:01;;;;;;;8.10;1.42;;;14.40;99.90;;;;;;4962506;28;20031;-73
2022/10/25 07:22:27;;;;;;;7.65;1.08;;;14.30;99.90;;;;;;4983571;28;20780;-73
2022/10/25 07:24:53;;;;;;;10.00;1.10;;;14.30;99.90;;;;;;4984629;28;20133;-74
2022/10/25 07:27:18;;;;;;;10.50;1.67;;;14.40;99.90;;;;;;4980746;28;20042;-73
2022/10/25 07:29:44;;;;;;;12.00;1.25;;;14.40;99.90;;;;;;4986275;28;20022;-73
2022/10/25 07:32:10;;;;;;;11.25;1.20;;;14.40;99.90;;;;;;4986157;28;20030;-73
2022/10/25 07:34:36;;;;;;;10.90;1.63;;;14.40;99.90;;;;;;4985579;28;20056;-73
2022/10/25 07:37:02;;;;;;;10.32;1.50;;;14.40;99.90;;;;;;4962938;28;20470;-72
2022/10/25 07:39:28;;;;;;;13.98;1.73;;;14.40;99.90;;;;;;4985633;28;20022;-73
2022/10/25 07:41:53;;;;;;;9.25;1.08;;;14.40;99.90;;;;;;4986078;28;20038;-72
2022/10/25 07:44:20;;;;;;;6.78;1.30;;;14.40;99.90;;;;;;4964836;28;20030;-72
2022/10/25 07:46:46;;;;;;;9.48;1.20;;;14.40;99.90;;;;;;4965475;28;20393;-73
2022/10/25 07:49:12;;;;;;;9.25;1.70;;;14.40;99.90;;;;;;4980586;28;20038;-73
2022/10/25 07:51:37;;;;;;;8.68;1.30;;;14.50;99.90;;;;;;4983589;28;20104;-73
2022/10/25 07:54:03;;;;;;;13.10;2.00;;;14.50;99.90;;;;;;4981754;28;20397;-73
2022/10/25 07:56:29;;;;;;;6.78;1.00;;;14.50;99.90;;;;;;4964283;28;20081;-74
2022/10/25 07:58:55;;;;;;;12.25;1.67;;;14.60;99.90;;;;;;4981106;28;20441;-73
2022/10/25 08:01:23;;;;;;;11.38;1.60;;;14.60;99.90;;;;;;4979130;28;20038;-74
2022/10/25 08:03:50;;;;;;;11.77;1.50;;;14.70;99.90;;;;;;4982580;28;20030;-73
2022/10/25 08:06:16;;;;;;;11.75;1.63;;;14.80;99.90;;;;;;4985244;28;20065;-74
2022/10/25 08:08:42;;;;;;;11.98;1.88;;;14.90;99.90;;;;;;4981121;28;20037;-75
2022/10/25 08:11:08;;;;;;;9.55;1.30;;;15.10;99.90;;;;;;4964580;28;20042;-74
2022/10/25 08:13:37;;;;;;;12.07;1.60;;;15.20;99.90;;;;;;4982954;28;20101;-75
2022/10/25 08:16:03;;;;;;;12.35;1.52;;;15.40;99.90;;;;;;4980139;28;20034;-74
2022/10/25 08:18:29;;;;;;;12.82;1.85;;;15.50;99.90;;;;;;4965376;28;20043;-74
2022/10/25 08:20:55;;;;;;;13.45;1.40;;;15.50;99.90;;;;;;4980922;28;20057;-75
2022/10/25 08:23:21;;;;;;;11.88;1.85;;;15.50;99.90;;;;;;4981495;28;20034;-74
2022/10/25 08:25:46;;;;;;;11.10;1.65;;;15.50;99.90;;;;;;4985058;28;20030;-74
2022/10/25 08:28:12;;;;;;;13.05;1.75;;;15.50;99.90;;;;;;4973754;28;20053;-74
2022/10/25 08:30:39;;;;;;;11.30;1.95;;;15.50;99.90;;;;;;4966361;28;20088;-74
2022/10/25 08:33:05;;;;;;;11.85;1.60;;;15.40;99.90;;;;;;4973017;28;20034;-74
2022/10/25 08:35:32;;;;;;;15.77;2.75;;;15.30;99.90;;;;;;4980001;28;20057;-74
2022/10/25 08:38:01;;;;;;;11.20;1.55;;;15.20;99.90;;;;;;4975817;28;20385;-73
2022/10/25 08:40:43;;;;;;;9.02;1.60;;;15.10;99.90;;;;;;4978409;28;20168;-74
2022/10/25 08:43:24;;;;;;;12.57;1.67;;;15.10;99.90;;;;;;4980582;28;20050;-73
2022/10/25 08:46:03;;;;;;;11.18;1.45;;;15.00;99.90;;;;;;4982189;28;20027;-75
2022/10/25 08:48:37;;;;;;;9.23;1.58;;;15.10;99.90;;;;;;4972770;28;20035;-75
2022/10/25 08:51:35;;;;;;;12.07;1.75;;;15.30;99.90;;;;;;4972345;28;20035;-75
2022/10/25 08:54:11;;;;;;;15.35;2.38;;;15.40;99.90;;;;;;4978368;28;20130;-74
2022/10/25 08:56:38;;;;;;;12.10;1.95;;;15.50;99.90;;;;;;4970360;28;20120;-74
2022/10/25 08:59:04;;;;;;;16.45;2.00;;;15.50;99.90;;;;;;4984219;28;20046;-74
2022/10/25 09:01:42;;;;;;;11.45;1.63;;;15.60;99.90;;;;;;4979379;28;20034;-77
2022/10/25 09:04:08;;;;;;;10.23;1.60;;;15.90;99.90;;;;;;4980448;28;20108;-75
2022/10/25 09:06:54;;;;;;;12.75;1.77;;;16.20;99.90;;;;;;4985228;28;20038;-74
2022/10/25 09:09:48;;;;;;;13.82;2.00;;;16.40;99.90;;;;;;4985070;28;20758;-75
2022/10/25 09:12:55;;;;;;;9.88;1.40;;;16.70;99.90;;;;;;4982545;28;20133;-76
2022/10/25 09:15:26;;;;;;;10.45;1.50;;;16.90;99.90;;;;;;4973679;28;20053;-74
2022/10/25 09:17:52;;;;;;;9.93;1.73;;;17.20;99.90;;;;;;4973384;28;20037;-74
2022/10/25 09:20:24;;;;;;;11.38;1.52;;;17.70;99.90;;;;;;4977788;28;20058;-74
2022/10/25 09:23:10;;;;;;;11.48;1.30;;;17.80;99.90;;;;;;4983159;28;20058;-75
2022/10/25 09:26:03;;;;;;;10.80;1.55;;;17.60;99.90;;;;;;4981758;28;20031;-77
2022/10/25 09:28:41;;;;;;;10.75;1.50;;;17.20;99.90;;;;;;4978376;28;20045;-74
2022/10/25 09:31:13;;;;;;;10.07;1.38;;;16.80;99.90;;;;;;4974904;28;20621;-73
2022/10/25 09:33:44;;;;;;;8.65;1.67;;;16.60;99.90;;;;;;4974419;28;20036;-74
2022/10/25 09:36:10;;;;;;;10.93;1.58;;;16.40;99.90;;;;;;4976094;28;20092;-73
2022/10/25 09:38:55;;;;;;;9.25;1.58;;;16.50;99.90;;;;;;4978051;28;20543;-73
2022/10/25 09:41:26;;;;;;;10.60;1.85;;;16.40;99.90;;;;;;4980352;28;20038;-73
2022/10/25 09:43:59;;;;;;;8.38;1.35;;;16.50;99.90;;;;;;4974923;28;20034;-75
2022/10/25 09:46:41;;;;;;;13.25;1.75;;;16.60;99.90;;;;;;4981520;28;20129;-74
2022/10/25 09:49:28;;;;;;;9.85;1.77;;;16.80;99.90;;;;;;4983632;28;20038;-74
2022/10/25 09:52:16;;;;;;;7.43;1.77;;;16.80;99.90;;;;;;4963131;28;20038;-76
2022/10/25 09:55:01;;;;;;;7.75;1.13;;;16.80;99.90;;;;;;4958769;28;20034;-74
2022/10/25 09:57:27;;;;;;;11.70;1.75;;;16.90;99.90;;;;;;4981497;28;20080;-76
2022/10/25 09:59:53;;;;;;;14.80;2.13;;;16.90;99.90;;;;;;4980451;28;20504;-75
2022/10/25 10:02:24;;;;;;;12.43;1.50;;;17.20;99.90;;;;;;4961374;28;20030;-75
2022/10/25 10:04:50;;;;;;;12.95;1.80;;;17.40;99.90;;;;;;4983414;28;20885;-75
2022/10/25 10:07:25;;;;;;;10.85;1.70;;;17.40;99.90;;;;;;4980401;28;20496;-75
2022/10/25 10:09:55;;;;;;;8.65;1.40;;;17.20;99.90;;;;;;4981391;28;20053;-75
2022/10/25 10:12:29;;;;;;;13.48;2.22;;;17.00;99.90;;;;;;4981479;28;20503;-75
2022/10/25 10:15:00;;;;;;;12.10;1.42;;;17.00;99.90;;;;;;4965885;28;20115;-74
2022/10/25 10:17:29;;;;;;;11.75;1.60;;;17.00;99.90;;;;;;4962739;28;20095;-73
2022/10/25 10:20:16;;;;;;;13.90;1.75;;;17.10;99.90;;;;;;4964654;28;20141;-75
2022/10/25 10:22:50;;;;;;;12.07;1.98;;;17.10;99.90;;;;;;4982175;28;20984;-76
2022/10/25 10:25:24;;;;;;;10.90;1.75;;;17.00;99.90;;;;;;4984408;28;20042;-75
2022/10/25 10:27:53;;;;;;;9.77;1.48;;;16.90;99.90;;;;;;4969212;28;20560;-74
2022/10/25 10:30:27;;;;;;;11.80;1.65;;;16.70;99.90;;;;;;4987754;28;20118;-75
2022/10/25 10:32:59;;;;;;;11.15;1.88;;;16.80;99.90;;;;;;4985763;28;20118;-76
2022/10/25 10:35:37;;;;;;;11.27;1.75;;;16.80;99.90;;;;;;4979711;28;20045;-75
2022/10/25 10:38:13;;;;;;;12.77;1.98;;;16.90;99.90;;;;;;4968411;28;20088;-77
2022/10/25 10:40:40;;;;;;;9.25;1.30;;;16.80;99.90;;;;;;4979233;28;20269;-72
2022/10/25 10:43:23;;;;;;;7.47;1.17;;;16.90;99.90;;;;;;4989764;28;20124;-74
2022/10/25 10:45:50;;;;;;;6.15;1.23;;;16.90;99.90;;;;;;4983018;28;20027;-73
2022/10/25 10:48:21;;;;;;;8.75;1.05;;;17.30;99.90;;;;;;4980464;28;20374;-75
2022/10/25 10:50:50;;;;;;;8.70;1.42;;;17.50;99.90;;;;;;4976409;28;20090;-75
2022/10/25 10:53:28;;;;;;;10.20;1.50;;;17.40;99.90;;;;;;4982408;28;20038;-75
2022/10/25 10:55:56;;;;;;;8.50;1.13;;;17.20;99.90;;;;;;4985694;28;22035;-75
2022/10/25 10:58:31;;;;;;;7.65;1.30;;;17.10;99.90;;;;;;4967893;28;20039;-74
2022/10/25 11:01:04;;;;;;;11.43;1.83;;;16.90;99.90;;;;;;4984645;28;20253;-73
2022/10/25 11:03:48;;;;;;;8.32;1.40;;;16.80;99.90;;;;;;4976586;28;20574;-73
2022/10/25 11:06:25;;;;;;;11.90;1.65;;;16.70;99.90;;;;;;4981969;28;20105;-75
2022/10/25 11:09:06;;;;;;;10.07;1.38;;;16.70;99.90;;;;;;4981602;28;20026;-73
2022/10/25 11:11:31;;;;;;;8.93;1.75;;;16.90;99.90;;;;;;4979648;28;20027;-76
2022/10/25 11:13:59;;;;;;;10.10;1.83;;;17.10;99.90;;;;;;4982420;28;20551;-73
2022/10/25 11:16:31;;;;;;;12.45;1.75;;;17.50;99.90;;;;;;4981623;28;20080;-74
2022/10/25 11:19:08;;;;;;;11.32;2.13;;;17.80;99.90;;;;;;4976965;28;20440;-75
2022/10/25 11:22:05;;;;;;;9.70;2.10;;;18.00;99.90;;;;;;4981553;28;20408;-75
2022/10/25 11:25:08;;;;;;;10.77;1.98;;;17.80;99.90;;;;;;4967823;28;20038;-74
2022/10/25 11:27:55;;;;;;;8.38;1.67;;;17.60;99.90;;;;;;4983625;28;20571;-75
2022/10/25 11:30:38;;;;;;;11.88;1.75;;;17.40;99.90;;;;;;4983194;28;20042;-72
2022/10/25 11:33:18;;;;;;;9.70;1.48;;;17.40;99.90;;;;;;4967813;28;20034;-73
2022/10/25 11:36:03;;;;;;;11.38;1.77;;;17.50;99.90;;;;;;4980312;28;20034;-73
2022/10/25 11:38:38;;;;;;;10.85;1.67;;;17.70;99.90;;;;;;4961053;28;20042;-75
2022/10/25 11:41:42;;;;;;;12.60;1.63;;;17.90;99.90;;;;;;4980864;28;20038;-75
2022/10/25 11:44:42;;;;;;;9.57;1.80;;;17.70;99.90;;;;;;4962788;28;20054;-75
2022/10/25 11:47:10;;;;;;;;;;;17.60;99.90;;;;;;4988417;28;20034;-73
2022/10/25 11:49:55;;;;;;;6.72;1.30;;;17.40;99.90;;;;;;4968185;28;20391;-73
2022/10/25 11:52:31;;;;;;;14.98;1.80;;;17.20;99.90;;;;;;4985591;28;20132;-74
2022/10/25 11:55:18;;;;;;;8.20;1.20;;;17.10;99.90;;;;;;4985985;28;20042;-74
2022/10/25 11:57:58;;;;;;;9.45;1.77;;;17.00;99.90;;;;;;4965935;28;20081;-73
2022/10/25 12:00:48;;;;;;;10.02;1.80;;;16.80;99.90;;;;;;4965591;28;20122;-74
2022/10/25 12:03:39;;;;;;;9.90;1.33;;;16.70;99.90;;;;;;4983939;28;20049;-73
2022/10/25 12:06:43;;;;;;;8.02;1.30;;;16.80;99.90;;;;;;4988143;28;20026;-74
2022/10/25 12:09:31;;;;;;;12.63;1.80;;;16.90;99.90;;;;;;4888642;29;20128;-72
2022/10/25 12:12:02;;;;;;;9.32;1.50;;;17.30;99.90;;;;;;4878946;29;20392;-74
2022/10/25 12:14:50;;;;;;;9.05;1.13;;;17.40;99.90;;;;;;4951829;28;20586;-72
2022/10/25 12:17:28;;;;;;;7.97;1.20;;;17.30;99.90;;;;;;4968186;28;20038;-74
2022/10/25 12:19:56;;;;;;;10.48;1.15;;;17.30;99.90;;;;;;4983938;28;20030;-73
2022/10/25 12:22:36;;;;;;;9.95;1.58;;;17.20;99.90;;;;;;4982807;28;20045;-73
2022/10/25 12:25:04;;;;;;;;;;;17.00;99.90;;;;;;4984989;28;20029;-74
2022/10/25 12:27:31;;;;;;;10.27;1.42;;;17.00;99.90;;;;;;4986093;28;19997;-73
2022/10/25 12:30:06;;;;;;;9.43;1.27;;;17.20;99.90;;;;;;4985741;28;20833;-75
2022/10/25 12:32:34;;;;;;;12.77;1.52;;;17.40;99.90;;;;;;4968057;28;20072;-75
2022/10/25 12:35:05;;;;;;;9.60;1.70;;;17.40;99.90;;;;;;4983864;28;20038;-73
2022/10/25 12:37:38;;;;;;;9.10;1.25;;;17.50;99.90;;;;;;4985348;28;20042;-73
2022/10/25 12:40:06;;;;;;;8.75;1.13;;;17.60;99.90;;;;;;4985200;28;20031;-74
2022/10/25 12:42:46;;;;;;;8.85;1.60;;;17.80;99.90;;;;;;4968091;28;20038;-74
2022/10/25 12:45:17;;;;;;;;;;;17.80;99.90;;;;;;4985808;28;20540;-75
2022/10/25 12:48:24;;;;;;;10.80;1.30;;;17.80;99.90;;;;;;4981404;28;19945;-74
2022/10/25 12:50:56;;;;;;;10.02;1.70;;;17.70;99.90;;;;;;4904547;29;20058;-72
2022/10/25 12:53:48;;;;;;;8.90;1.40;;;17.50;99.90;;;;;;4971671;28;20050;-73
2022/10/25 12:56:40;;;;;;;10.07;1.40;;;17.50;99.90;;;;;;4978582;28;20034;-74
2022/10/25 12:59:14;;;;;;;9.88;1.67;;;17.40;99.90;;;;;;4982846;28;20485;-74
2022/10/25 13:02:02;;;;;;;7.72;1.50;;;17.40;99.90;;;;;;4974950;28;20030;-73
2022/10/25 13:04:35;;;;;;;7.50;1.20;;;17.30;99.90;;;;;;4981744;28;20034;-74